La Guardia Airport
KLGA : now visible

Airfield :











YOU CAN JOIN US ON...

 
LOGIN :

Register | Disclaimer

   EN    FR    IT 

 









Legend :    VFR   Marginal VFR   IFR   Intensive IFR   Very Intensive IFR
Visi :
Ceiling :
>= 8 km
>= 3000ft
5 to 8 km
1000 to 3000 ft
1500m to 5 km
500 to 1000 ft
800 to 1500m
200 to 500 ft
< 800m
< 200 ft
Symbols :   Thunderstorms  Fog  Heavy snow  Heavy precipitations  Wind > 20 kt







- Airport Elevation : 21 ft
- IATA code : LGA


KLGA - La Guardia

CURRENT METAR :
  • 190951Z 04003KT 10SM BKN150 BKN250 24/19 A2998 RMK AO2 SLP152 T02390194

EXPIRED METARs :
  • 190851Z 32004KT 10SM FEW015 BKN250 24/19 A2997 RMK AO2 SLP149 T02440194 53008
  • 190751Z 24004KT 10SM SCT029 BKN250 25/20 A2996 RMK AO2 SLP145 T02500200

TAF KLGA
Valid from the 19 at 09:00 until the 20 at 12:00 UTC


190836Z 1909/2012 VRB05KT P6SM SCT015 SCT030
FM191300 24005KT P6SM SCT040 BKN250
FM191800 18009KT P6SM SCT040 SCT250
FM192000 18011KT P6SM SCT040 SCT250
PROB30 1920/1924 TSRA BKN040CB
FM200200 VRB05KT P6SM FEW020 SCT040
No reported NOTAMs for that airfield.



MET'MAP, your aeronautical weather chart ! - Copyright ORBIFLY December 2007 - Disclaimer

ORBIFLY MET'MAP TEAM :

Programming & Development : Alexandra Zaïnal
Concept & Development : Baudouin d'Aumeries
Co-Development & Prog : Marc-Olivier Méhu
Technical & hardware support : Manuel Goepfert

Contact : metmap@orbifly.com




SOURCES & CREDITS :

   NOAA       Earth
Advisory